ROMMA est une association bénévole à but non lucratif. Votre soutien est indispensable : ADHERER à ROMMA ou FAIRE un DON

Crest - (26, Drôme)

Vallée de la Drôme (315 m)   Longitude: 5°2' E   Latitude: 44°44' N Station partenaire n°62
 

Détail journalier du     <<     >>

Température Precipitation Humidité Pression Vent Dir Rafale Dir. rafale Ensol.
Heure (°C) (mm) (%) (hPa) (km/h) (km/h) (min)
01:00 4.5083102313SO29SO0
02:00 4.6082102213SO24NNO0
03:00 3.508510229SSO23SSO0
04:00 3.208810236SSO23NNO0
05:00 2.7085102312SO27NNE0
06:00 2.408810233NE8ENE0
07:00 1.608910232SO5SO0
08:00 1.409110233SSO11SSO0
09:00 1.7091102410SSO27SSO15
10:00 2.709010253NE10ENE20
11:00 4.208610254ENE11ENE11
12:00 6.607410257SSO18S49
13:00 7.807210253ESE15SSO50
14:00 7.807510249SSO19SSO26
15:00 6.7078102410SSO23SSO18
16:00 6.1082102519SSO35SSO3
17:00 6.1079102613SSO31SSO25
18:00 5.2083102713SSO29SSO0
19:00 6.9072102915SSO29SSO0
20:00 10.1059102814NE31ENE0
21:00 9.905910289NE26NNE0
22:00 9.3062102810SSO21SO0
23:00 6.407610285SO18NNO0
minuit 6.6077102811SSO26SSO0

Graphique du 26-12-2019

 

Serveur OMMA